sensor_id;sensor_type;location;lat;lon;timestamp;temperature;humidity
20171;DHT22;10245;51.344;6.620;2023-05-15T00:00:07;13.80;90.00
20171;DHT22;10245;51.344;6.620;2023-05-15T00:02:36;13.80;89.90
20171;DHT22;10245;51.344;6.620;2023-05-15T00:05:00;13.80;90.00
20171;DHT22;10245;51.344;6.620;2023-05-15T00:07:25;13.80;90.00
20171;DHT22;10245;51.344;6.620;2023-05-15T00:09:48;13.60;90.30
20171;DHT22;10245;51.344;6.620;2023-05-15T00:12:12;13.60;90.50
20171;DHT22;10245;51.344;6.620;2023-05-15T00:14:36;13.60;90.70
20171;DHT22;10245;51.344;6.620;2023-05-15T00:16:59;13.50;90.80
20171;DHT22;10245;51.344;6.620;2023-05-15T00:19:22;13.60;90.60
20171;DHT22;10245;51.344;6.620;2023-05-15T00:21:46;13.50;90.50
20171;DHT22;10245;51.344;6.620;2023-05-15T00:24:10;13.50;90.60
20171;DHT22;10245;51.344;6.620;2023-05-15T00:26:34;13.50;90.50
20171;DHT22;10245;51.344;6.620;2023-05-15T00:28:57;13.50;90.70
20171;DHT22;10245;51.344;6.620;2023-05-15T00:31:21;13.40;90.90
20171;DHT22;10245;51.344;6.620;2023-05-15T00:33:44;13.40;90.90
20171;DHT22;10245;51.344;6.620;2023-05-15T00:36:08;13.40;90.80
20171;DHT22;10245;51.344;6.620;2023-05-15T00:38:32;13.50;90.80
20171;DHT22;10245;51.344;6.620;2023-05-15T00:40:58;13.40;90.60
20171;DHT22;10245;51.344;6.620;2023-05-15T00:43:25;13.40;90.70
20171;DHT22;10245;51.344;6.620;2023-05-15T00:45:51;13.30;91.00
20171;DHT22;10245;51.344;6.620;2023-05-15T00:48:14;13.30;91.10
20171;DHT22;10245;51.344;6.620;2023-05-15T00:50:38;13.30;90.80
20171;DHT22;10245;51.344;6.620;2023-05-15T00:53:03;13.30;90.40
20171;DHT22;10245;51.344;6.620;2023-05-15T00:55:27;13.30;90.30
20171;DHT22;10245;51.344;6.620;2023-05-15T00:57:53;13.10;90.90
20171;DHT22;10245;51.344;6.620;2023-05-15T01:00:18;13.00;91.20
20171;DHT22;10245;51.344;6.620;2023-05-15T01:02:43;13.00;91.30
20171;DHT22;10245;51.344;6.620;2023-05-15T01:05:07;13.10;91.30
20171;DHT22;10245;51.344;6.620;2023-05-15T01:07:33;13.00;91.20
20171;DHT22;10245;51.344;6.620;2023-05-15T01:10:05;13.10;91.20
20171;DHT22;10245;51.344;6.620;2023-05-15T01:12:31;13.00;91.10
20171;DHT22;10245;51.344;6.620;2023-05-15T01:14:56;13.10;90.90
20171;DHT22;10245;51.344;6.620;2023-05-15T01:17:21;13.10;90.60
20171;DHT22;10245;51.344;6.620;2023-05-15T01:19:45;12.90;90.90
20171;DHT22;10245;51.344;6.620;2023-05-15T01:22:33;12.90;91.20
20171;DHT22;10245;51.344;6.620;2023-05-15T01:25:50;12.80;91.20
20171;DHT22;10245;51.344;6.620;2023-05-15T01:28:29;12.90;91.10
20171;DHT22;10245;51.344;6.620;2023-05-15T01:30:55;12.80;90.90
20171;DHT22;10245;51.344;6.620;2023-05-15T01:33:23;12.80;91.20
20171;DHT22;10245;51.344;6.620;2023-05-15T01:35:57;12.70;91.40
20171;DHT22;10245;51.344;6.620;2023-05-15T01:38:29;12.60;91.60
20171;DHT22;10245;51.344;6.620;2023-05-15T01:41:00;12.70;91.60
20171;DHT22;10245;51.344;6.620;2023-05-15T01:43:28;12.60;91.60
20171;DHT22;10245;51.344;6.620;2023-05-15T01:45:56;12.60;91.80
20171;DHT22;10245;51.344;6.620;2023-05-15T01:48:21;12.70;91.60
20171;DHT22;10245;51.344;6.620;2023-05-15T01:50:45;12.60;91.20
20171;DHT22;10245;51.344;6.620;2023-05-15T01:53:11;12.50;91.10
20171;DHT22;10245;51.344;6.620;2023-05-15T01:55:35;12.50;91.40
20171;DHT22;10245;51.344;6.620;2023-05-15T01:58:00;12.50;91.60
20171;DHT22;10245;51.344;6.620;2023-05-15T02:00:25;12.50;91.60
20171;DHT22;10245;51.344;6.620;2023-05-15T02:02:49;12.50;91.40
20171;DHT22;10245;51.344;6.620;2023-05-15T02:05:13;12.50;91.50
20171;DHT22;10245;51.344;6.620;2023-05-15T02:07:37;12.50;91.30
20171;DHT22;10245;51.344;6.620;2023-05-15T02:10:01;12.40;91.00
20171;DHT22;10245;51.344;6.620;2023-05-15T02:12:26;12.30;91.50
20171;DHT22;10245;51.344;6.620;2023-05-15T02:14:51;12.30;91.80
20171;DHT22;10245;51.344;6.620;2023-05-15T02:17:16;12.40;91.60
20171;DHT22;10245;51.344;6.620;2023-05-15T02:19:39;12.40;91.40
20171;DHT22;10245;51.344;6.620;2023-05-15T02:22:03;12.20;91.30
20171;DHT22;10245;51.344;6.620;2023-05-15T02:24:27;12.20;91.50
20171;DHT22;10245;51.344;6.620;2023-05-15T02:26:59;12.10;91.40
20171;DHT22;10245;51.344;6.620;2023-05-15T02:29:30;12.20;91.60
20171;DHT22;10245;51.344;6.620;2023-05-15T02:32:00;12.20;91.30
20171;DHT22;10245;51.344;6.620;2023-05-15T02:34:35;12.10;91.50
20171;DHT22;10245;51.344;6.620;2023-05-15T02:37:03;12.10;91.60
20171;DHT22;10245;51.344;6.620;2023-05-15T02:39:33;12.00;91.60
20171;DHT22;10245;51.344;6.620;2023-05-15T02:41:58;12.10;91.60
20171;DHT22;10245;51.344;6.620;2023-05-15T02:44:22;12.10;91.50
20171;DHT22;10245;51.344;6.620;2023-05-15T02:46:46;12.00;91.80
20171;DHT22;10245;51.344;6.620;2023-05-15T02:49:12;12.00;91.80
20171;DHT22;10245;51.344;6.620;2023-05-15T02:51:37;12.00;91.80
20171;DHT22;10245;51.344;6.620;2023-05-15T02:54:01;12.00;91.80
20171;DHT22;10245;51.344;6.620;2023-05-15T02:56:24;12.10;91.80
20171;DHT22;10245;51.344;6.620;2023-05-15T02:58:48;12.10;91.80
20171;DHT22;10245;51.344;6.620;2023-05-15T03:01:11;12.10;91.50
20171;DHT22;10245;51.344;6.620;2023-05-15T03:03:34;12.10;91.60
20171;DHT22;10245;51.344;6.620;2023-05-15T03:05:58;12.10;91.70
20171;DHT22;10245;51.344;6.620;2023-05-15T03:08:23;12.10;91.90
20171;DHT22;10245;51.344;6.620;2023-05-15T03:10:46;12.10;91.70
20171;DHT22;10245;51.344;6.620;2023-05-15T03:13:10;12.10;91.80
20171;DHT22;10245;51.344;6.620;2023-05-15T03:15:33;12.10;91.90
20171;DHT22;10245;51.344;6.620;2023-05-15T03:17:57;12.10;91.70
20171;DHT22;10245;51.344;6.620;2023-05-15T03:20:20;12.20;91.80
20171;DHT22;10245;51.344;6.620;2023-05-15T03:22:43;12.00;91.90
20171;DHT22;10245;51.344;6.620;2023-05-15T03:25:10;12.10;91.90
20171;DHT22;10245;51.344;6.620;2023-05-15T03:27:33;12.10;91.70
20171;DHT22;10245;51.344;6.620;2023-05-15T03:29:56;12.00;91.70
20171;DHT22;10245;51.344;6.620;2023-05-15T03:32:20;12.10;91.90
20171;DHT22;10245;51.344;6.620;2023-05-15T03:34:43;12.10;91.60
20171;DHT22;10245;51.344;6.620;2023-05-15T03:37:07;12.20;91.40
20171;DHT22;10245;51.344;6.620;2023-05-15T03:39:30;12.10;91.00
20171;DHT22;10245;51.344;6.620;2023-05-15T03:41:55;12.20;91.10
20171;DHT22;10245;51.344;6.620;2023-05-15T03:44:18;12.20;91.30
20171;DHT22;10245;51.344;6.620;2023-05-15T03:46:42;12.20;90.90
20171;DHT22;10245;51.344;6.620;2023-05-15T03:49:05;12.10;91.40
20171;DHT22;10245;51.344;6.620;2023-05-15T03:51:28;12.10;91.10
20171;DHT22;10245;51.344;6.620;2023-05-15T03:53:52;12.00;91.20
20171;DHT22;10245;51.344;6.620;2023-05-15T03:56:17;12.00;91.50
20171;DHT22;10245;51.344;6.620;2023-05-15T03:58:42;12.00;91.30
20171;DHT22;10245;51.344;6.620;2023-05-15T04:01:05;12.00;91.30
20171;DHT22;10245;51.344;6.620;2023-05-15T04:03:29;12.00;91.10
20171;DHT22;10245;51.344;6.620;2023-05-15T04:05:52;12.00;90.90
20171;DHT22;10245;51.344;6.620;2023-05-15T04:08:15;12.00;90.80
20171;DHT22;10245;51.344;6.620;2023-05-15T04:10:38;11.90;91.00
20171;DHT22;10245;51.344;6.620;2023-05-15T04:13:02;12.00;91.10
20171;DHT22;10245;51.344;6.620;2023-05-15T04:15:27;12.10;90.90
20171;DHT22;10245;51.344;6.620;2023-05-15T04:17:51;12.10;90.80
20171;DHT22;10245;51.344;6.620;2023-05-15T04:20:19;12.00;90.60
20171;DHT22;10245;51.344;6.620;2023-05-15T04:22:43;11.90;90.80
20171;DHT22;10245;51.344;6.620;2023-05-15T04:25:08;11.90;90.60
20171;DHT22;10245;51.344;6.620;2023-05-15T04:27:32;11.70;90.90
20171;DHT22;10245;51.344;6.620;2023-05-15T04:29:56;11.80;91.00
20171;DHT22;10245;51.344;6.620;2023-05-15T04:32:20;11.90;90.80
20171;DHT22;10245;51.344;6.620;2023-05-15T04:34:44;11.80;90.50
20171;DHT22;10245;51.344;6.620;2023-05-15T04:37:07;11.80;90.80
20171;DHT22;10245;51.344;6.620;2023-05-15T04:39:30;11.90;90.70
20171;DHT22;10245;51.344;6.620;2023-05-15T04:41:54;11.90;90.30
20171;DHT22;10245;51.344;6.620;2023-05-15T04:44:17;11.80;90.30
20171;DHT22;10245;51.344;6.620;2023-05-15T04:46:40;11.80;90.40
20171;DHT22;10245;51.344;6.620;2023-05-15T04:49:05;11.70;90.50
20171;DHT22;10245;51.344;6.620;2023-05-15T04:51:28;11.70;90.60
20171;DHT22;10245;51.344;6.620;2023-05-15T04:53:52;11.60;91.00
20171;DHT22;10245;51.344;6.620;2023-05-15T04:56:16;11.80;91.00
20171;DHT22;10245;51.344;6.620;2023-05-15T04:58:41;11.60;90.70
20171;DHT22;10245;51.344;6.620;2023-05-15T05:01:04;11.60;91.20
20171;DHT22;10245;51.344;6.620;2023-05-15T05:03:27;11.50;91.20
20171;DHT22;10245;51.344;6.620;2023-05-15T05:05:52;11.60;91.10
20171;DHT22;10245;51.344;6.620;2023-05-15T05:08:16;11.70;90.90
20171;DHT22;10245;51.344;6.620;2023-05-15T05:10:39;11.70;90.80
20171;DHT22;10245;51.344;6.620;2023-05-15T05:13:02;11.80;90.70
20171;DHT22;10245;51.344;6.620;2023-05-15T05:15:26;11.80;90.90
20171;DHT22;10245;51.344;6.620;2023-05-15T05:17:49;11.80;90.70
20171;DHT22;10245;51.344;6.620;2023-05-15T05:20:13;11.90;90.70
20171;DHT22;10245;51.344;6.620;2023-05-15T05:22:38;12.00;90.40
20171;DHT22;10245;51.344;6.620;2023-05-15T05:25:05;11.90;90.10
20171;DHT22;10245;51.344;6.620;2023-05-15T05:27:29;11.90;90.30
20171;DHT22;10245;51.344;6.620;2023-05-15T05:29:52;11.90;90.10
20171;DHT22;10245;51.344;6.620;2023-05-15T05:32:15;11.90;90.20
20171;DHT22;10245;51.344;6.620;2023-05-15T05:34:39;11.80;90.30
20171;DHT22;10245;51.344;6.620;2023-05-15T05:37:02;11.80;90.10
20171;DHT22;10245;51.344;6.620;2023-05-15T05:39:27;11.80;89.90
20171;DHT22;10245;51.344;6.620;2023-05-15T05:41:51;12.00;90.10
20171;DHT22;10245;51.344;6.620;2023-05-15T05:44:14;12.00;89.60
20171;DHT22;10245;51.344;6.620;2023-05-15T05:46:37;12.00;90.10
20171;DHT22;10245;51.344;6.620;2023-05-15T05:49:01;11.90;89.30
20171;DHT22;10245;51.344;6.620;2023-05-15T05:51:24;12.00;89.30
20171;DHT22;10245;51.344;6.620;2023-05-15T05:53:47;12.00;89.70
20171;DHT22;10245;51.344;6.620;2023-05-15T05:56:12;11.90;88.90
20171;DHT22;10245;51.344;6.620;2023-05-15T05:58:36;12.10;89.20
20171;DHT22;10245;51.344;6.620;2023-05-15T06:00:59;12.20;88.20
20171;DHT22;10245;51.344;6.620;2023-05-15T06:03:23;12.10;88.10
20171;DHT22;10245;51.344;6.620;2023-05-15T06:05:47;12.00;88.30
20171;DHT22;10245;51.344;6.620;2023-05-15T06:08:10;12.10;88.40
20171;DHT22;10245;51.344;6.620;2023-05-15T06:10:33;12.10;88.50
20171;DHT22;10245;51.344;6.620;2023-05-15T06:12:58;12.30;88.60
20171;DHT22;10245;51.344;6.620;2023-05-15T06:15:22;12.50;87.80
20171;DHT22;10245;51.344;6.620;2023-05-15T06:17:45;12.50;87.10
20171;DHT22;10245;51.344;6.620;2023-05-15T06:20:09;12.50;88.30
20171;DHT22;10245;51.344;6.620;2023-05-15T06:22:33;12.50;86.80
20171;DHT22;10245;51.344;6.620;2023-05-15T06:24:56;12.70;87.30
20171;DHT22;10245;51.344;6.620;2023-05-15T06:27:19;12.60;86.40
20171;DHT22;10245;51.344;6.620;2023-05-15T06:29:44;12.50;86.90
20171;DHT22;10245;51.344;6.620;2023-05-15T06:32:07;12.30;86.80
20171;DHT22;10245;51.344;6.620;2023-05-15T06:34:31;12.20;87.00
20171;DHT22;10245;51.344;6.620;2023-05-15T06:36:54;12.00;87.50
20171;DHT22;10245;51.344;6.620;2023-05-15T06:39:18;12.00;87.60
20171;DHT22;10245;51.344;6.620;2023-05-15T06:41:41;12.10;87.90
20171;DHT22;10245;51.344;6.620;2023-05-15T06:44:06;12.20;87.10
20171;DHT22;10245;51.344;6.620;2023-05-15T06:46:31;12.30;86.80
20171;DHT22;10245;51.344;6.620;2023-05-15T06:48:55;12.50;85.70
20171;DHT22;10245;51.344;6.620;2023-05-15T06:51:18;12.50;85.50
20171;DHT22;10245;51.344;6.620;2023-05-15T06:53:42;12.40;85.20
20171;DHT22;10245;51.344;6.620;2023-05-15T06:56:05;12.60;85.80
20171;DHT22;10245;51.344;6.620;2023-05-15T06:58:29;12.50;85.20
20171;DHT22;10245;51.344;6.620;2023-05-15T07:00:52;12.80;85.40
20171;DHT22;10245;51.344;6.620;2023-05-15T07:03:19;12.90;84.30
20171;DHT22;10245;51.344;6.620;2023-05-15T07:05:43;13.10;84.50
20171;DHT22;10245;51.344;6.620;2023-05-15T07:08:07;12.90;83.10
20171;DHT22;10245;51.344;6.620;2023-05-15T07:10:30;12.90;84.70
20171;DHT22;10245;51.344;6.620;2023-05-15T07:12:54;13.00;83.20
20171;DHT22;10245;51.344;6.620;2023-05-15T07:15:17;13.20;83.60
20171;DHT22;10245;51.344;6.620;2023-05-15T07:17:40;13.30;83.00
20171;DHT22;10245;51.344;6.620;2023-05-15T07:20:07;13.20;81.30
20171;DHT22;10245;51.344;6.620;2023-05-15T07:22:31;13.50;81.30
20171;DHT22;10245;51.344;6.620;2023-05-15T07:25:06;13.70;82.60
20171;DHT22;10245;51.344;6.620;2023-05-15T07:27:30;13.70;80.90
20171;DHT22;10245;51.344;6.620;2023-05-15T07:29:53;13.70;80.40
20171;DHT22;10245;51.344;6.620;2023-05-15T07:32:17;13.70;81.50
20171;DHT22;10245;51.344;6.620;2023-05-15T07:34:40;14.00;81.20
20171;DHT22;10245;51.344;6.620;2023-05-15T07:37:05;13.80;80.90
20171;DHT22;10245;51.344;6.620;2023-05-15T07:39:28;14.00;80.40
20171;DHT22;10245;51.344;6.620;2023-05-15T07:41:52;14.10;81.00
20171;DHT22;10245;51.344;6.620;2023-05-15T07:44:15;14.00;80.70
20171;DHT22;10245;51.344;6.620;2023-05-15T07:46:39;14.20;80.30
20171;DHT22;10245;51.344;6.620;2023-05-15T07:49:03;14.50;77.90
20171;DHT22;10245;51.344;6.620;2023-05-15T07:51:27;14.50;79.60
20171;DHT22;10245;51.344;6.620;2023-05-15T07:53:51;14.10;78.70
20171;DHT22;10245;51.344;6.620;2023-05-15T07:56:15;14.30;77.90
20171;DHT22;10245;51.344;6.620;2023-05-15T07:58:38;14.10;78.50
20171;DHT22;10245;51.344;6.620;2023-05-15T08:01:02;14.60;78.30
20171;DHT22;10245;51.344;6.620;2023-05-15T08:03:25;14.40;78.60
20171;DHT22;10245;51.344;6.620;2023-05-15T08:05:48;14.70;79.30
20171;DHT22;10245;51.344;6.620;2023-05-15T08:08:12;14.80;77.70
20171;DHT22;10245;51.344;6.620;2023-05-15T08:10:39;15.10;77.00
20171;DHT22;10245;51.344;6.620;2023-05-15T08:13:02;14.80;78.10
20171;DHT22;10245;51.344;6.620;2023-05-15T08:15:25;14.90;75.70
20171;DHT22;10245;51.344;6.620;2023-05-15T08:17:50;14.90;77.20
20171;DHT22;10245;51.344;6.620;2023-05-15T08:20:13;15.10;76.20
20171;DHT22;10245;51.344;6.620;2023-05-15T08:22:36;14.60;76.50
20171;DHT22;10245;51.344;6.620;2023-05-15T08:25:00;14.80;78.70
20171;DHT22;10245;51.344;6.620;2023-05-15T08:27:26;14.60;74.20
20171;DHT22;10245;51.344;6.620;2023-05-15T08:29:49;15.00;76.60
20171;DHT22;10245;51.344;6.620;2023-05-15T08:32:13;15.30;75.60
20171;DHT22;10245;51.344;6.620;2023-05-15T08:34:36;15.50;76.90
20171;DHT22;10245;51.344;6.620;2023-05-15T08:37:00;16.00;73.20
20171;DHT22;10245;51.344;6.620;2023-05-15T08:39:24;15.30;73.90
20171;DHT22;10245;51.344;6.620;2023-05-15T08:41:55;15.40;74.00
20171;DHT22;10245;51.344;6.620;2023-05-15T08:44:23;15.40;71.30
20171;DHT22;10245;51.344;6.620;2023-05-15T08:46:46;15.70;71.30
20171;DHT22;10245;51.344;6.620;2023-05-15T08:49:19;15.80;69.50
20171;DHT22;10245;51.344;6.620;2023-05-15T08:51:47;16.30;74.10
20171;DHT22;10245;51.344;6.620;2023-05-15T08:54:11;16.20;72.00
20171;DHT22;10245;51.344;6.620;2023-05-15T08:56:35;15.50;69.50
20171;DHT22;10245;51.344;6.620;2023-05-15T08:58:58;15.80;71.70
20171;DHT22;10245;51.344;6.620;2023-05-15T09:01:23;15.80;69.70
20171;DHT22;10245;51.344;6.620;2023-05-15T09:03:47;15.40;67.10
20171;DHT22;10245;51.344;6.620;2023-05-15T09:06:11;15.30;66.20
20171;DHT22;10245;51.344;6.620;2023-05-15T09:08:36;16.70;66.90
20171;DHT22;10245;51.344;6.620;2023-05-15T09:11:01;16.20;66.40
20171;DHT22;10245;51.344;6.620;2023-05-15T09:13:26;16.20;68.40
20171;DHT22;10245;51.344;6.620;2023-05-15T09:15:49;16.50;66.40
20171;DHT22;10245;51.344;6.620;2023-05-15T09:18:15;16.60;67.90
20171;DHT22;10245;51.344;6.620;2023-05-15T09:20:38;17.00;69.00
20171;DHT22;10245;51.344;6.620;2023-05-15T09:23:03;17.30;70.50
20171;DHT22;10245;51.344;6.620;2023-05-15T09:25:35;17.20;68.80
20171;DHT22;10245;51.344;6.620;2023-05-15T09:28:00;17.40;68.10
20171;DHT22;10245;51.344;6.620;2023-05-15T09:30:25;17.50;69.20
20171;DHT22;10245;51.344;6.620;2023-05-15T09:32:49;16.90;66.30
20171;DHT22;10245;51.344;6.620;2023-05-15T09:35:31;17.40;67.40
20171;DHT22;10245;51.344;6.620;2023-05-15T09:37:59;17.10;67.70
20171;DHT22;10245;51.344;6.620;2023-05-15T09:40:23;17.00;66.50
20171;DHT22;10245;51.344;6.620;2023-05-15T09:42:51;16.50;66.80
20171;DHT22;10245;51.344;6.620;2023-05-15T09:45:16;16.40;68.60
20171;DHT22;10245;51.344;6.620;2023-05-15T09:47:44;17.10;67.50
20171;DHT22;10245;51.344;6.620;2023-05-15T09:50:08;17.60;68.30
20171;DHT22;10245;51.344;6.620;2023-05-15T09:52:34;17.90;62.20
20171;DHT22;10245;51.344;6.620;2023-05-15T09:55:02;17.50;67.90
20171;DHT22;10245;51.344;6.620;2023-05-15T09:57:26;17.20;64.60
20171;DHT22;10245;51.344;6.620;2023-05-15T09:59:49;17.50;67.30
20171;DHT22;10245;51.344;6.620;2023-05-15T10:02:13;17.40;65.30
20171;DHT22;10245;51.344;6.620;2023-05-15T10:04:44;17.30;62.40
20171;DHT22;10245;51.344;6.620;2023-05-15T10:07:08;17.30;63.80
20171;DHT22;10245;51.344;6.620;2023-05-15T10:09:33;17.30;61.80
20171;DHT22;10245;51.344;6.620;2023-05-15T10:11:56;17.70;61.80
20171;DHT22;10245;51.344;6.620;2023-05-15T10:14:21;18.20;61.70
20171;DHT22;10245;51.344;6.620;2023-05-15T10:16:45;18.40;62.80
20171;DHT22;10245;51.344;6.620;2023-05-15T10:19:09;18.70;62.00
20171;DHT22;10245;51.344;6.620;2023-05-15T10:21:36;18.50;63.30
20171;DHT22;10245;51.344;6.620;2023-05-15T10:24:01;18.60;59.40
20171;DHT22;10245;51.344;6.620;2023-05-15T10:26:32;18.50;58.00
20171;DHT22;10245;51.344;6.620;2023-05-15T10:28:59;18.60;59.70
20171;DHT22;10245;51.344;6.620;2023-05-15T10:31:23;18.40;62.90
20171;DHT22;10245;51.344;6.620;2023-05-15T10:33:47;18.80;60.90
20171;DHT22;10245;51.344;6.620;2023-05-15T10:36:12;18.60;61.00
20171;DHT22;10245;51.344;6.620;2023-05-15T10:38:37;19.10;59.90
20171;DHT22;10245;51.344;6.620;2023-05-15T10:41:01;19.30;59.10
20171;DHT22;10245;51.344;6.620;2023-05-15T10:43:40;18.60;62.20
20171;DHT22;10245;51.344;6.620;2023-05-15T10:46:04;18.20;57.90
20171;DHT22;10245;51.344;6.620;2023-05-15T10:48:28;18.50;55.80
20171;DHT22;10245;51.344;6.620;2023-05-15T10:50:52;18.30;55.80
20171;DHT22;10245;51.344;6.620;2023-05-15T10:53:16;18.80;58.30
20171;DHT22;10245;51.344;6.620;2023-05-15T10:55:39;19.20;59.90
20171;DHT22;10245;51.344;6.620;2023-05-15T10:58:07;18.90;54.50
20171;DHT22;10245;51.344;6.620;2023-05-15T11:00:33;19.00;55.90
20171;DHT22;10245;51.344;6.620;2023-05-15T11:02:57;18.70;54.10
20171;DHT22;10245;51.344;6.620;2023-05-15T11:05:22;19.20;57.90
20171;DHT22;10245;51.344;6.620;2023-05-15T11:08:22;19.10;53.70
20171;DHT22;10245;51.344;6.620;2023-05-15T11:10:48;19.10;54.20
20171;DHT22;10245;51.344;6.620;2023-05-15T11:13:11;18.90;53.10
20171;DHT22;10245;51.344;6.620;2023-05-15T11:15:43;18.60;56.70
20171;DHT22;10245;51.344;6.620;2023-05-15T11:18:07;19.70;56.00
20171;DHT22;10245;51.344;6.620;2023-05-15T11:20:37;20.10;58.20
20171;DHT22;10245;51.344;6.620;2023-05-15T11:23:01;19.40;51.90
20171;DHT22;10245;51.344;6.620;2023-05-15T11:25:28;20.10;54.60
20171;DHT22;10245;51.344;6.620;2023-05-15T11:27:54;19.80;51.30
20171;DHT22;10245;51.344;6.620;2023-05-15T11:30:19;20.10;52.20
20171;DHT22;10245;51.344;6.620;2023-05-15T11:33:00;20.10;51.60
20171;DHT22;10245;51.344;6.620;2023-05-15T11:35:27;20.50;51.40
20171;DHT22;10245;51.344;6.620;2023-05-15T11:37:52;20.10;53.50
20171;DHT22;10245;51.344;6.620;2023-05-15T11:40:21;20.00;50.40
20171;DHT22;10245;51.344;6.620;2023-05-15T11:42:58;20.50;50.80
20171;DHT22;10245;51.344;6.620;2023-05-15T11:45:23;20.20;50.50
20171;DHT22;10245;51.344;6.620;2023-05-15T11:47:46;20.40;57.50
20171;DHT22;10245;51.344;6.620;2023-05-15T11:50:12;20.00;47.20
20171;DHT22;10245;51.344;6.620;2023-05-15T11:52:35;19.60;47.10
20171;DHT22;10245;51.344;6.620;2023-05-15T11:54:59;20.00;50.20
20171;DHT22;10245;51.344;6.620;2023-05-15T11:57:23;19.70;49.20
20171;DHT22;10245;51.344;6.620;2023-05-15T11:59:46;19.90;48.30
20171;DHT22;10245;51.344;6.620;2023-05-15T12:02:09;19.90;48.30
20171;DHT22;10245;51.344;6.620;2023-05-15T12:04:33;20.20;48.20
20171;DHT22;10245;51.344;6.620;2023-05-15T12:06:59;20.80;52.80
20171;DHT22;10245;51.344;6.620;2023-05-15T12:09:24;20.50;47.80
20171;DHT22;10245;51.344;6.620;2023-05-15T12:11:50;20.60;47.60
20171;DHT22;10245;51.344;6.620;2023-05-15T12:14:13;19.60;49.20
20171;DHT22;10245;51.344;6.620;2023-05-15T12:16:37;20.80;52.60
20171;DHT22;10245;51.344;6.620;2023-05-15T12:19:00;20.50;50.90
20171;DHT22;10245;51.344;6.620;2023-05-15T12:21:25;20.00;50.90
20171;DHT22;10245;51.344;6.620;2023-05-15T12:23:51;19.50;51.70
20171;DHT22;10245;51.344;6.620;2023-05-15T12:26:28;19.60;52.30
20171;DHT22;10245;51.344;6.620;2023-05-15T12:28:53;20.20;50.40
20171;DHT22;10245;51.344;6.620;2023-05-15T12:31:17;20.20;52.10
20171;DHT22;10245;51.344;6.620;2023-05-15T12:33:41;20.50;52.00
20171;DHT22;10245;51.344;6.620;2023-05-15T12:36:05;20.10;51.30
20171;DHT22;10245;51.344;6.620;2023-05-15T12:38:29;19.70;53.10
20171;DHT22;10245;51.344;6.620;2023-05-15T12:40:56;19.90;54.50
20171;DHT22;10245;51.344;6.620;2023-05-15T12:43:22;20.30;52.90
20171;DHT22;10245;51.344;6.620;2023-05-15T12:45:51;20.30;51.80
20171;DHT22;10245;51.344;6.620;2023-05-15T12:48:14;20.00;51.40
20171;DHT22;10245;51.344;6.620;2023-05-15T12:50:38;19.90;52.70
20171;DHT22;10245;51.344;6.620;2023-05-15T12:53:03;20.10;54.70
20171;DHT22;10245;51.344;6.620;2023-05-15T12:55:28;19.90;53.50
20171;DHT22;10245;51.344;6.620;2023-05-15T12:57:55;20.40;54.90
20171;DHT22;10245;51.344;6.620;2023-05-15T13:00:20;21.00;52.70
20171;DHT22;10245;51.344;6.620;2023-05-15T13:02:44;21.10;53.70
20171;DHT22;10245;51.344;6.620;2023-05-15T13:05:08;21.00;51.60
20171;DHT22;10245;51.344;6.620;2023-05-15T13:07:32;20.90;53.00
20171;DHT22;10245;51.344;6.620;2023-05-15T13:10:04;19.80;53.70
20171;DHT22;10245;51.344;6.620;2023-05-15T13:12:34;20.20;56.20
20171;DHT22;10245;51.344;6.620;2023-05-15T13:15:00;20.00;53.90
20171;DHT22;10245;51.344;6.620;2023-05-15T13:17:23;20.50;54.10
20171;DHT22;10245;51.344;6.620;2023-05-15T13:19:47;20.50;54.40
20171;DHT22;10245;51.344;6.620;2023-05-15T13:22:10;20.60;53.60
20171;DHT22;10245;51.344;6.620;2023-05-15T13:24:33;20.90;56.60
20171;DHT22;10245;51.344;6.620;2023-05-15T13:26:57;20.50;55.50
20171;DHT22;10245;51.344;6.620;2023-05-15T13:29:20;20.10;53.50
20171;DHT22;10245;51.344;6.620;2023-05-15T13:31:45;20.10;52.40
20171;DHT22;10245;51.344;6.620;2023-05-15T13:34:08;20.40;56.30
20171;DHT22;10245;51.344;6.620;2023-05-15T13:36:32;20.20;55.60
20171;DHT22;10245;51.344;6.620;2023-05-15T13:38:55;20.50;53.70
20171;DHT22;10245;51.344;6.620;2023-05-15T13:41:19;20.50;58.40
20171;DHT22;10245;51.344;6.620;2023-05-15T13:43:43;20.50;52.60
20171;DHT22;10245;51.344;6.620;2023-05-15T13:46:08;19.90;52.80
20171;DHT22;10245;51.344;6.620;2023-05-15T13:48:33;20.40;54.30
20171;DHT22;10245;51.344;6.620;2023-05-15T13:50:56;20.40;55.90
20171;DHT22;10245;51.344;6.620;2023-05-15T13:53:20;20.40;56.90
20171;DHT22;10245;51.344;6.620;2023-05-15T13:55:43;20.00;58.50
20171;DHT22;10245;51.344;6.620;2023-05-15T13:58:06;19.80;56.00
20171;DHT22;10245;51.344;6.620;2023-05-15T14:00:30;19.70;58.70
20171;DHT22;10245;51.344;6.620;2023-05-15T14:02:53;19.70;56.70
20171;DHT22;10245;51.344;6.620;2023-05-15T14:05:18;19.50;59.50
20171;DHT22;10245;51.344;6.620;2023-05-15T14:07:42;19.60;57.90
20171;DHT22;10245;51.344;6.620;2023-05-15T14:10:06;19.60;58.10
20171;DHT22;10245;51.344;6.620;2023-05-15T14:12:30;19.50;59.10
20171;DHT22;10245;51.344;6.620;2023-05-15T14:14:54;19.60;57.10
20171;DHT22;10245;51.344;6.620;2023-05-15T14:17:17;19.40;58.80
20171;DHT22;10245;51.344;6.620;2023-05-15T14:19:41;19.00;58.10
20171;DHT22;10245;51.344;6.620;2023-05-15T14:22:06;19.50;59.00
20171;DHT22;10245;51.344;6.620;2023-05-15T14:24:29;19.60;58.00
20171;DHT22;10245;51.344;6.620;2023-05-15T14:26:53;19.20;58.50
20171;DHT22;10245;51.344;6.620;2023-05-15T14:29:16;19.60;58.90
20171;DHT22;10245;51.344;6.620;2023-05-15T14:31:40;19.30;58.60
20171;DHT22;10245;51.344;6.620;2023-05-15T14:34:03;18.90;58.00
20171;DHT22;10245;51.344;6.620;2023-05-15T14:36:27;19.00;59.20
20171;DHT22;10245;51.344;6.620;2023-05-15T14:38:52;19.10;63.10
20171;DHT22;10245;51.344;6.620;2023-05-15T14:41:16;18.60;57.60
20171;DHT22;10245;51.344;6.620;2023-05-15T14:43:39;19.00;61.00
20171;DHT22;10245;51.344;6.620;2023-05-15T14:46:03;18.60;58.50
20171;DHT22;10245;51.344;6.620;2023-05-15T14:48:29;18.80;57.70
20171;DHT22;10245;51.344;6.620;2023-05-15T14:50:54;19.00;58.10
20171;DHT22;10245;51.344;6.620;2023-05-15T14:53:18;18.90;58.90
20171;DHT22;10245;51.344;6.620;2023-05-15T14:55:42;18.40;60.40
20171;DHT22;10245;51.344;6.620;2023-05-15T14:58:06;17.80;62.70
20171;DHT22;10245;51.344;6.620;2023-05-15T15:00:32;17.80;64.50
20171;DHT22;10245;51.344;6.620;2023-05-15T15:02:55;17.90;65.60
20171;DHT22;10245;51.344;6.620;2023-05-15T15:05:20;17.60;65.00
20171;DHT22;10245;51.344;6.620;2023-05-15T15:08:00;17.30;68.50
20171;DHT22;10245;51.344;6.620;2023-05-15T15:10:24;17.30;68.40
20171;DHT22;10245;51.344;6.620;2023-05-15T15:12:50;17.30;69.50
20171;DHT22;10245;51.344;6.620;2023-05-15T15:15:14;17.40;69.30